Time;durP1;ratioP1;P1;durP2;ratioP2;P2;SDS_P1;SDS_P2;PMS_P1;PMS_P2;Temp;Humidity;BMP_temperature;BMP_pressure;BME280_temperature;BME280_humidity;BME280_pressure;Samples;Min_cycle;Max_cycle;Signal;HPM_P1;HPM_P2
2022/05/01 00:01:23;;;;;;;;;9.00;9.00;;;;;14.52;40.21;102013.22;5068992;27;45433;-79
2022/05/01 00:03:49;;;;;;;;;9.75;9.00;;;;;14.45;40.46;102008.00;5068417;28;45227;-79
2022/05/01 00:06:14;;;;;;;;;8.50;8.50;;;;;14.50;40.51;102017.72;5074713;28;46503;-79
2022/05/01 00:08:42;;;;;;;;;12.50;10.00;;;;;14.49;40.76;102021.38;5071388;28;45440;-79
2022/05/01 00:11:08;;;;;;;;;9.00;9.00;;;;;14.50;40.71;102020.41;5078492;28;45350;-79
2022/05/01 00:13:34;;;;;;;;;12.00;11.00;;;;;14.46;40.58;102020.50;5062052;28;45243;-79
2022/05/01 00:16:00;;;;;;;;;12.25;10.25;;;;;14.43;40.75;102011.66;5074713;28;45969;-79
2022/05/01 00:18:26;;;;;;;;;9.00;9.00;;;;;14.45;40.97;102010.69;5060371;28;45297;-79
2022/05/01 00:20:51;;;;;;;;;9.50;9.50;;;;;14.45;40.72;102018.75;5061639;28;45217;-78
2022/05/01 00:23:18;;;;;;;;;13.75;11.00;;;;;14.44;40.74;102008.91;5071333;28;45219;-78
2022/05/01 00:25:45;;;;;;;;;10.75;10.25;;;;;14.40;40.45;102012.63;5073148;28;46249;-79
2022/05/01 00:28:14;;;;;;;;;12.75;11.00;;;;;14.43;40.79;102012.56;5071324;28;45433;-79
2022/05/01 00:30:40;;;;;;;;;10.00;10.00;;;;;14.41;40.88;102017.06;5071731;28;45325;-78
2022/05/01 00:36:33;;;;;;;;;11.25;10.25;;;;;14.35;40.73;102013.66;5065921;28;45527;-79
2022/05/01 00:38:39;;;;;;;;;10.75;9.50;;;;;14.30;41.29;102007.53;5068487;28;45496;-78
2022/05/01 00:41:07;;;;;;;;;9.75;9.75;;;;;14.26;41.06;102020.19;5068610;28;45433;-79
2022/05/01 00:43:51;;;;;;;;;11.50;11.50;;;;;14.21;41.27;102016.75;5058875;28;45521;-78
2022/05/01 00:46:17;;;;;;;;;11.50;11.25;;;;;14.15;41.17;102011.53;5059658;28;45421;-78
2022/05/01 00:48:43;;;;;;;;;9.25;9.25;;;;;14.08;41.39;102000.97;5059254;28;45450;-79
2022/05/01 00:51:09;;;;;;;;;11.25;11.25;;;;;14.06;41.54;101993.88;5062100;28;45590;-79
2022/05/01 00:53:34;;;;;;;;;12.00;12.00;;;;;14.09;41.78;102000.03;5067514;28;45362;-79
2022/05/01 00:56:01;;;;;;;;;12.75;11.00;;;;;14.12;41.67;101998.22;5066718;27;45161;-80
2022/05/01 00:58:27;;;;;;;;;15.00;15.00;;;;;14.13;41.60;101999.97;5070959;28;45542;-79
2022/05/01 01:00:52;;;;;;;;;11.75;11.75;;;;;14.16;41.48;102003.44;5061497;28;45907;-79
2022/05/01 01:03:17;;;;;;;;;15.00;12.50;;;;;14.09;41.76;101991.97;5064578;28;45293;-79
2022/05/01 01:05:44;;;;;;;;;11.75;10.00;;;;;14.06;41.67;101988.50;5072497;28;45408;-79
2022/05/01 01:08:10;;;;;;;;;7.00;7.00;;;;;14.13;41.80;101999.97;5061324;28;45567;-78
2022/05/01 01:10:35;;;;;;;;;10.25;10.25;;;;;14.09;41.81;101991.13;5061409;28;45802;-79
2022/05/01 01:13:01;;;;;;;;;11.00;11.00;;;;;14.06;41.69;101992.06;5062006;28;45544;-79
2022/05/01 01:15:28;;;;;;;;;13.50;11.50;;;;;14.08;41.92;101998.28;5068079;28;46844;-79
2022/05/01 01:17:54;;;;;;;;;12.75;11.00;;;;;13.98;41.85;101979.78;5061005;28;45446;-78
2022/05/01 01:20:22;;;;;;;;;12.75;12.50;;;;;13.97;41.86;101989.63;5060483;28;45306;-78
2022/05/01 01:22:49;;;;;;;;;14.00;13.75;;;;;13.90;42.13;101990.72;5066665;28;45430;-79
2022/05/01 01:25:18;;;;;;;;;11.00;11.00;;;;;13.90;42.05;101994.28;5060220;28;45342;-79
2022/05/01 01:27:45;;;;;;;;;11.25;11.25;;;;;13.89;42.23;101989.81;5067078;28;45536;-80
2022/05/01 01:32:55;;;;;;;;;14.50;12.75;;;;;13.81;42.46;101977.53;5067659;28;46591;-80
2022/05/01 01:35:24;;;;;;;;;15.00;13.25;;;;;13.80;42.34;101983.81;5071351;28;46042;-80
2022/05/01 01:37:52;;;;;;;;;10.25;10.25;;;;;13.76;42.46;101983.03;5068506;28;45284;-80
2022/05/01 01:40:23;;;;;;;;;14.25;14.25;;;;;13.77;42.47;101983.91;5073972;28;45383;-79
2022/05/01 01:42:54;;;;;;;;;14.75;12.00;;;;;13.76;42.69;101990.19;5060033;28;45338;-80
2022/05/01 01:45:20;;;;;;;;;15.00;14.75;;;;;13.74;42.65;101987.56;5059897;28;45270;-80
2022/05/01 01:47:49;;;;;;;;;14.00;13.75;;;;;13.65;42.82;101977.94;5060007;28;45758;-80
2022/05/01 01:50:18;;;;;;;;;15.00;13.25;;;;;13.67;42.75;101980.59;5072474;28;45310;-80
2022/05/01 01:52:47;;;;;;;;;15.50;12.25;;;;;13.65;42.83;101991.34;5070286;28;45463;-79
2022/05/01 01:55:16;;;;;;;;;15.00;13.50;;;;;13.57;42.95;101987.13;5068463;28;46037;-80
2022/05/01 01:57:43;;;;;;;;;16.00;13.50;;;;;13.56;42.95;101991.56;5066407;28;45546;-80
2022/05/01 02:00:09;;;;;;;;;15.75;13.75;;;;;13.53;42.94;101984.50;5068924;28;45309;-80
2022/05/01 02:02:35;;;;;;;;;15.00;15.00;;;;;13.54;43.22;101982.69;5072858;28;45539;-79
2022/05/01 02:05:00;;;;;;;;;14.50;14.50;;;;;13.56;43.12;101978.16;5066157;28;47238;-80
2022/05/01 02:07:28;;;;;;;;;19.25;16.25;;;;;13.48;43.20;101972.09;5066786;28;45272;-79
2022/05/01 02:09:53;;;;;;;;;20.00;19.00;;;;;13.55;43.26;101983.56;5063154;28;45322;-80
2022/05/01 02:12:20;;;;;;;;;18.75;17.25;;;;;13.46;43.38;101972.13;5059332;28;45319;-80
2022/05/01 02:14:45;;;;;;;;;18.75;16.25;;;;;13.45;43.62;101966.84;5059808;28;45397;-80
2022/05/01 02:17:10;;;;;;;;;20.50;19.50;;;;;13.44;43.52;101970.44;5059558;28;45405;-80
2022/05/01 02:19:36;;;;;;;;;25.25;21.00;;;;;13.36;43.75;101973.28;5060858;28;45375;-80
2022/05/01 02:22:01;;;;;;;;;20.75;16.00;;;;;13.28;43.79;101968.09;5066074;28;45304;-80
2022/05/01 02:24:27;;;;;;;;;19.75;15.75;;;;;13.21;43.71;101960.22;5072971;28;45333;-80
2022/05/01 02:26:52;;;;;;;;;19.25;17.00;;;;;13.24;43.84;101965.53;5059197;28;45432;-80
2022/05/01 02:29:18;;;;;;;;;16.00;16.00;;;;;13.23;44.00;101971.78;5073379;28;45160;-80
2022/05/01 02:31:44;;;;;;;;;17.00;16.00;;;;;13.20;44.20;101961.13;5081165;28;45215;-80
2022/05/01 02:34:11;;;;;;;;;15.50;12.00;;;;;13.17;44.09;101956.75;5061301;28;46234;-80
2022/05/01 02:36:38;;;;;;;;;19.75;18.75;;;;;13.13;44.09;101955.94;5059268;28;45343;-80
2022/05/01 02:39:05;;;;;;;;;16.50;16.50;;;;;13.12;44.11;101953.28;5059810;28;45338;-80
2022/05/01 02:41:31;;;;;;;;;17.00;17.00;;;;;13.18;44.43;101957.63;5069166;28;45370;-80
2022/05/01 02:43:56;;;;;;;;;16.00;15.75;;;;;13.13;44.16;101955.03;5059222;28;46910;-80
2022/05/01 02:46:23;;;;;;;;;17.25;17.00;;;;;13.15;44.48;101953.22;5059240;28;45448;-81
2022/05/01 02:48:49;;;;;;;;;17.25;15.00;;;;;13.19;44.51;101954.91;5058364;28;45290;-81
2022/05/01 02:51:15;;;;;;;;;17.50;15.50;;;;;13.24;44.49;101952.97;5058959;28;45343;-80
2022/05/01 02:53:40;;;;;;;;;14.25;13.00;;;;;13.25;44.44;101938.66;5059228;28;45213;-80
2022/05/01 02:56:05;;;;;;;;;19.50;18.00;;;;;13.27;44.46;101942.19;5059126;28;45291;-80
2022/05/01 02:58:31;;;;;;;;;21.75;19.00;;;;;13.23;44.41;101939.63;5068665;28;45536;-80
2022/05/01 03:00:57;;;;;;;;;18.50;18.25;;;;;13.11;44.42;101939.00;5059103;27;45177;-80
2022/05/01 03:03:24;;;;;;;;;17.25;17.25;;;;;13.02;44.80;101941.03;5072196;28;45392;-80
2022/05/01 03:05:51;;;;;;;;;22.75;18.75;;;;;13.01;44.58;101945.47;5060679;28;45541;-80
2022/05/01 03:08:18;;;;;;;;;15.75;14.50;;;;;13.01;44.59;101948.16;5064307;28;45717;-80
2022/05/01 03:10:43;;;;;;;;;20.00;19.00;;;;;13.02;44.66;101944.56;5068901;28;45556;-80
2022/05/01 03:13:09;;;;;;;;;17.00;17.00;;;;;12.95;44.86;101930.44;5064891;28;45399;-80
2022/05/01 03:15:34;;;;;;;;;15.00;15.00;;;;;12.89;44.56;101932.38;5062406;28;45312;-79
2022/05/01 03:23:28;;;;;;;;;14.75;14.75;;;;;12.87;45.29;101931.53;5074668;28;45361;-81
2022/05/01 03:25:53;;;;;;;;;17.75;16.75;;;;;12.91;45.15;101930.53;5066801;28;45238;-80
2022/05/01 03:28:18;;;;;;;;;17.25;15.50;;;;;12.89;45.10;101917.19;5065538;28;45330;-81
2022/05/01 03:30:44;;;;;;;;;21.75;19.25;;;;;12.92;45.34;101924.28;5080856;28;45548;-81
2022/05/01 03:33:10;;;;;;;;;16.75;14.00;;;;;12.91;45.15;101919.81;5069591;28;46113;-81
2022/05/01 03:35:36;;;;;;;;;16.00;15.50;;;;;12.91;45.16;101923.41;5074140;28;45311;-81
2022/05/01 03:38:06;;;;;;;;;16.50;15.50;;;;;12.85;45.32;101910.13;5065402;28;45397;-81
2022/05/01 03:40:35;;;;;;;;;15.75;14.50;;;;;12.83;45.33;101917.34;5062154;28;45255;-80
2022/05/01 03:43:04;;;;;;;;;15.25;15.25;;;;;12.86;45.43;101919.91;5076451;28;46048;-80
2022/05/01 03:45:30;;;;;;;;;15.00;9.00;;;;;12.81;45.05;101923.63;5073983;28;45339;-81
2022/05/01 03:47:56;;;;;;;;;15.50;15.25;;;;;12.78;45.42;101908.53;5062682;28;45461;-80
2022/05/01 03:50:21;;;;;;;;;17.50;13.75;;;;;12.81;45.40;101911.09;5074024;28;45331;-80
2022/05/01 03:52:47;;;;;;;;;15.25;15.25;;;;;12.83;45.27;101914.66;5068325;28;45574;-80
2022/05/01 03:55:12;;;;;;;;;14.25;14.25;;;;;12.78;45.26;101897.81;5074439;28;45369;-80
2022/05/01 03:57:39;;;;;;;;;18.25;15.25;;;;;12.82;45.30;101907.53;5065564;28;45318;-80
2022/05/01 04:00:06;;;;;;;;;16.50;16.50;;;;;12.88;45.46;101917.22;5060315;27;45487;-80
2022/05/01 04:02:39;;;;;;;;;15.50;15.00;;;;;12.92;45.22;101911.75;5070470;28;45549;-80
2022/05/01 04:05:05;;;;;;;;;17.75;15.25;;;;;12.95;45.40;101913.50;5071779;28;45647;-80
2022/05/01 04:07:31;;;;;;;;;19.00;17.00;;;;;12.97;45.42;101912.50;5060218;28;45598;-81
2022/05/01 04:09:56;;;;;;;;;14.00;14.00;;;;;12.98;45.43;101911.63;5060684;28;45315;-81
2022/05/01 04:12:21;;;;;;;;;17.50;16.75;;;;;13.01;45.28;101912.44;5067755;28;46422;-80
2022/05/01 04:14:47;;;;;;;;;16.00;14.75;;;;;12.99;45.46;101901.75;5062923;28;45583;-81
2022/05/01 04:17:12;;;;;;;;;16.75;14.00;;;;;13.02;45.17;101911.53;5080962;28;45357;-81
2022/05/01 04:19:37;;;;;;;;;15.75;15.75;;;;;13.02;45.13;101911.53;5075582;28;45173;-81
2022/05/01 04:22:04;;;;;;;;;18.25;16.75;;;;;12.93;45.11;101921.56;5067621;28;46961;-80
2022/05/01 04:24:29;;;;;;;;;21.00;18.00;;;;;12.78;45.44;101904.03;5066781;28;45464;-80
2022/05/01 04:26:55;;;;;;;;;16.25;16.25;;;;;12.85;45.34;101910.13;5061044;28;45310;-81
2022/05/01 04:29:36;;;;;;;;;17.00;15.25;;;;;12.81;45.21;101904.88;5064496;28;45500;-80
2022/05/01 04:32:04;;;;;;;;;14.25;14.25;;;;;12.86;45.38;101908.31;5077677;28;46300;-80
2022/05/01 04:34:29;;;;;;;;;17.50;17.50;;;;;12.90;45.40;101918.06;5063447;28;45585;-81
2022/05/01 04:36:54;;;;;;;;;16.00;15.00;;;;;12.86;45.42;101909.19;5064955;28;45497;-81
2022/05/01 04:39:20;;;;;;;;;18.75;18.75;;;;;12.89;45.18;101919.84;5061073;28;45252;-80
2022/05/01 04:41:45;;;;;;;;;18.75;18.00;;;;;12.85;45.54;101910.13;5073280;28;47039;-81
2022/05/01 04:44:11;;;;;;;;;22.50;18.00;;;;;12.84;45.27;101921.75;5072210;28;45336;-81
2022/05/01 04:46:36;;;;;;;;;19.50;16.50;;;;;12.84;45.29;101918.22;5061012;28;45569;-81
2022/05/01 04:49:02;;;;;;;;;22.00;22.00;;;;;12.79;45.36;101921.84;5060375;28;45389;-81
2022/05/01 04:51:27;;;;;;;;;19.00;16.50;;;;;12.79;45.48;101913.81;5060588;28;45560;-81
2022/05/01 04:53:53;;;;;;;;;17.50;16.75;;;;;12.74;45.47;101913.03;5060980;28;45275;-81
2022/05/01 04:59:02;;;;;;;;;20.25;19.25;;;;;12.79;45.69;101923.66;5059447;28;45302;-81
2022/05/01 05:01:27;;;;;;;;;21.50;20.00;;;;;12.77;45.50;101917.47;5060317;28;45395;-80
2022/05/01 05:03:52;;;;;;;;;21.75;20.50;;;;;12.79;45.82;101923.66;5065938;28;45367;-81
2022/05/01 05:06:18;;;;;;;;;18.25;17.00;;;;;12.74;45.77;101929.13;5077494;28;45278;-81
2022/05/01 05:11:27;;;;;;;;;20.00;17.00;;;;;12.78;45.78;101935.31;5062057;28;45840;-81
2022/05/01 05:13:52;;;;;;;;;17.75;16.00;;;;;12.79;45.77;101937.06;5066458;28;45290;-81
2022/05/01 05:16:18;;;;;;;;;20.00;17.25;;;;;12.77;45.86;101941.59;5066931;28;45615;-81
2022/05/01 05:18:44;;;;;;;;;15.75;15.00;;;;;12.78;45.71;101949.59;5060674;28;45264;-81
2022/05/01 05:21:09;;;;;;;;;15.25;15.25;;;;;12.79;45.82;101939.75;5067466;28;46374;-81
2022/05/01 05:23:35;;;;;;;;;16.25;16.00;;;;;12.76;45.89;101938.03;5064995;28;45303;-81
2022/05/01 05:26:01;;;;;;;;;19.00;18.00;;;;;12.81;45.72;101945.94;5060388;28;45309;-81
2022/05/01 05:28:26;;;;;;;;;19.25;18.75;;;;;12.82;45.86;101945.03;5060116;28;45212;-81
2022/05/01 05:30:52;;;;;;;;;24.00;22.00;;;;;12.83;45.76;101948.59;5070742;28;46130;-81
2022/05/01 05:33:18;;;;;;;;;17.75;17.00;;;;;12.75;46.05;101943.41;5068566;28;45193;-81
2022/05/01 05:35:44;;;;;;;;;17.00;17.00;;;;;12.74;46.02;101958.59;5075634;27;45551;-81
2022/05/01 05:38:10;;;;;;;;;23.00;17.75;;;;;12.75;46.46;101952.34;5080136;28;45245;-81
2022/05/01 05:40:36;;;;;;;;;20.00;18.00;;;;;12.77;46.00;101954.97;5064566;28;45306;-81
2022/05/01 05:43:01;;;;;;;;;24.00;17.25;;;;;12.73;46.11;101947.91;5073193;28;45311;-81
2022/05/01 05:45:27;;;;;;;;;24.25;22.00;;;;;12.73;46.11;101950.59;5073171;28;45486;-81
2022/05/01 05:47:52;;;;;;;;;18.00;16.75;;;;;12.73;46.10;101945.22;5059982;28;45358;-81
2022/05/01 05:50:18;;;;;;;;;24.00;23.50;;;;;12.78;46.15;101944.22;5066661;28;45354;-81
2022/05/01 05:52:43;;;;;;;;;20.00;18.00;;;;;12.78;46.21;101948.72;5080314;28;45153;-81
2022/05/01 05:55:09;;;;;;;;;23.75;22.00;;;;;12.82;46.32;101955.75;5075160;28;45588;-81
2022/05/01 05:57:34;;;;;;;;;25.25;21.25;;;;;12.84;46.28;101951.22;5079865;28;45509;-81
2022/05/01 06:00:00;;;;;;;;;21.00;19.75;;;;;12.85;46.33;101946.78;5073893;27;46984;-81
2022/05/01 06:02:25;;;;;;;;;22.25;20.25;;;;;12.86;46.17;101949.41;5068635;28;46083;-81
2022/05/01 06:04:51;;;;;;;;;23.25;21.50;;;;;12.82;46.43;101928.97;5061257;28;45655;-81
2022/05/01 06:07:16;;;;;;;;;22.50;20.50;;;;;12.86;46.29;101943.16;5069899;28;45553;-81
2022/05/01 06:09:41;;;;;;;;;24.50;23.25;;;;;12.75;46.17;101938.06;5077402;28;45920;-81
2022/05/01 06:12:09;;;;;;;;;28.50;25.25;;;;;12.79;46.29;101939.75;5075912;28;45688;-81
2022/05/01 06:14:35;;;;;;;;;15.50;14.25;;;;;12.77;46.52;101936.22;5059463;28;45465;-80
2022/05/01 06:17:00;;;;;;;;;28.25;25.25;;;;;12.78;46.48;101941.56;5066529;28;45531;-83
2022/05/01 06:19:25;;;;;;;;;25.00;23.75;;;;;12.78;46.32;101948.72;5062583;28;45385;-77
2022/05/01 06:21:51;;;;;;;;;22.75;22.00;;;;;12.66;46.95;101943.63;5067087;28;45276;-68
2022/05/01 06:24:16;;;;;;;;;28.75;27.25;;;;;12.67;46.72;101948.94;5066136;28;45457;-67
2022/05/01 06:26:42;;;;;;;;;25.25;23.00;;;;;12.65;46.83;101944.53;5062110;28;45314;-67
2022/05/01 06:29:08;;;;;;;;;25.25;23.00;;;;;12.69;47.07;101956.94;5061651;28;45380;-68
2022/05/01 06:31:33;;;;;;;;;26.50;23.25;;;;;12.67;47.01;101953.44;5065414;27;45592;-80
2022/05/01 06:33:59;;;;;;;;;21.25;19.50;;;;;12.68;47.05;101947.13;5059721;28;45418;-81
2022/05/01 06:36:25;;;;;;;;;26.75;23.25;;;;;12.70;46.85;101956.91;5059284;28;45216;-84
2022/05/01 06:38:50;;;;;;;;;25.50;24.25;;;;;12.69;47.09;101946.22;5058049;28;47305;-81
2022/05/01 06:41:15;;;;;;;;;25.25;22.75;;;;;12.78;46.96;101962.13;5074544;28;45304;-81
2022/05/01 06:43:41;;;;;;;;;32.75;28.50;;;;;12.76;47.06;101955.88;5061919;28;45393;-79
2022/05/01 06:46:06;;;;;;;;;31.00;28.75;;;;;12.79;46.71;101969.22;5073133;28;45486;-79
2022/05/01 06:48:32;;;;;;;;;23.00;20.00;;;;;12.75;47.03;101959.50;5076268;28;46113;-79
2022/05/01 06:50:57;;;;;;;;;26.25;25.75;;;;;12.83;46.98;101972.72;5064919;28;45227;-80
2022/05/01 06:53:23;;;;;;;;;29.00;27.25;;;;;12.86;47.18;101981.56;5075416;28;45418;-77
2022/05/01 06:55:49;;;;;;;;;25.25;25.25;;;;;12.80;47.24;101968.31;5069241;28;45434;-78
2022/05/01 06:58:14;;;;;;;;;26.25;24.25;;;;;12.85;47.08;101973.56;5068475;28;46278;-78
2022/05/01 07:00:40;;;;;;;;;27.75;27.00;;;;;12.83;47.16;101967.34;5066034;28;45336;-79
2022/05/01 07:03:05;;;;;;;;;27.50;25.00;;;;;12.84;47.05;101966.44;5064852;27;45402;-79
2022/05/01 07:05:30;;;;;;;;;25.50;24.00;;;;;12.87;46.90;101963.69;5067877;28;45392;-78
2022/05/01 07:07:56;;;;;;;;;28.75;27.00;;;;;12.93;47.30;101963.53;5066158;27;46462;-78
2022/05/01 07:10:22;;;;;;;;;28.25;26.50;;;;;12.96;47.03;101967.06;5079365;28;45313;-77
2022/05/01 07:12:48;;;;;;;;;27.00;24.50;;;;;12.97;47.01;101952.72;5072041;28;45685;-79
2022/05/01 07:15:13;;;;;;;;;30.00;27.00;;;;;13.02;46.99;101955.31;5060574;28;45508;-79
2022/05/01 07:17:39;;;;;;;;;26.00;25.75;;;;;13.00;47.20;101949.09;5075749;28;45958;-79
2022/05/01 07:20:05;;;;;;;;;29.00;26.00;;;;;13.02;47.24;101946.38;5061041;28;45389;-79
2022/05/01 07:22:30;;;;;;;;;29.25;25.50;;;;;13.13;46.98;101952.34;5059429;28;45461;-81
2022/05/01 07:24:56;;;;;;;;;25.00;24.00;;;;;13.14;47.06;101949.63;5072329;28;45325;-83
2022/05/01 07:27:22;;;;;;;;;29.50;26.00;;;;;13.15;46.96;101947.88;5061417;28;45420;-81
2022/05/01 07:29:47;;;;;;;;;26.00;24.75;;;;;13.23;47.05;101948.56;5065788;28;45221;-82
2022/05/01 07:32:12;;;;;;;;;30.50;28.25;;;;;13.16;46.83;101936.19;5079270;28;45295;-81
2022/05/01 07:34:38;;;;;;;;;32.25;23.75;;;;;13.30;47.12;101951.97;5071589;28;45299;-82
2022/05/01 07:37:03;;;;;;;;;28.75;28.50;;;;;13.25;46.50;101941.34;5068482;28;45647;-82
2022/05/01 07:39:29;;;;;;;;;29.25;28.50;;;;;13.36;46.73;101946.47;5069517;28;45314;-83
2022/05/01 07:41:54;;;;;;;;;24.75;24.75;;;;;13.41;46.61;101952.59;5071936;28;45296;-83
2022/05/01 07:44:20;;;;;;;;;29.25;24.50;;;;;13.41;46.45;101938.31;5071316;28;45564;-79
2022/05/01 07:46:45;;;;;;;;;34.50;29.50;;;;;13.51;46.84;101945.22;5072345;28;46016;-77
2022/05/01 07:49:11;;;;;;;;;31.00;30.75;;;;;13.55;46.76;101959.41;5076690;28;45277;-77
2022/05/01 07:51:36;;;;;;;;;24.00;23.75;;;;;13.59;46.50;101950.38;5060713;28;45441;-77
2022/05/01 07:54:04;;;;;;;;;28.00;25.00;;;;;13.58;46.49;101933.44;5060344;28;45373;-78
2022/05/01 07:56:30;;;;;;;;;24.50;24.25;;;;;13.69;46.16;101943.84;5069496;28;45349;-78
2022/05/01 07:58:55;;;;;;;;;31.50;27.00;;;;;13.73;46.10;101939.28;5062200;28;45693;-77
2022/05/01 08:01:21;;;;;;;;;22.75;20.75;;;;;13.71;46.19;101939.31;5065382;28;45306;-77
2022/05/01 08:06:31;;;;;;;;;25.00;23.75;;;;;13.76;46.03;101929.34;5073201;28;45412;-77
2022/05/01 08:08:57;;;;;;;;;23.00;21.75;;;;;13.82;45.85;101931.88;5060702;28;45627;-76
2022/05/01 08:11:22;;;;;;;;;26.50;25.50;;;;;13.85;45.76;101931.81;5063772;28;45385;-76
2022/05/01 08:13:48;;;;;;;;;30.75;23.75;;;;;13.90;45.97;101932.56;5078887;28;46145;-78
2022/05/01 08:16:13;;;;;;;;;28.50;27.25;;;;;13.90;46.06;101929.00;5074463;28;45550;-76
2022/05/01 08:21:23;;;;;;;;;22.50;22.50;;;;;13.97;45.79;101927.03;5072413;28;45413;-76
2022/05/01 08:23:49;;;;;;;;;23.00;21.75;;;;;14.03;45.78;101925.06;5058997;28;45717;-76
2022/05/01 08:26:17;;;;;;;;;26.75;24.25;;;;;14.07;45.30;101920.47;5072787;28;47239;-76
2022/05/01 08:28:44;;;;;;;;;28.00;27.25;;;;;14.08;45.46;101923.13;5069983;28;45811;-81
2022/05/01 08:31:09;;;;;;;;;25.25;25.25;;;;;14.07;45.53;101915.97;5075816;28;45425;-84
2022/05/01 08:33:36;;;;;;;;;24.50;23.00;;;;;14.09;45.52;101908.75;5064089;28;45529;-84
2022/05/01 08:36:03;;;;;;;;;25.50;22.00;;;;;14.14;45.73;101910.44;5060871;28;45471;-83
2022/05/01 08:38:30;;;;;;;;;23.00;21.25;;;;;14.19;45.18;101908.50;5060783;28;45372;-84
2022/05/01 08:40:55;;;;;;;;;27.50;25.00;;;;;14.22;44.85;101906.59;5061404;28;45305;-83
2022/05/01 08:43:22;;;;;;;;;25.00;24.50;;;;;14.18;44.11;101910.31;5059086;28;45577;-83
2022/05/01 08:45:53;;;;;;;;;20.50;19.25;;;;;14.19;44.22;101905.81;5060906;28;46564;-84
2022/05/01 08:48:29;;;;;;;;;28.25;24.00;;;;;14.10;44.29;101896.22;5064721;28;45284;-83
2022/05/01 08:50:55;;;;;;;;;23.75;21.75;;;;;14.20;44.26;101913.81;5081503;28;45393;-84
2022/05/01 08:53:22;;;;;;;;;23.50;23.50;;;;;14.19;44.40;101904.00;5061683;28;45730;-84
2022/05/01 08:55:50;;;;;;;;;25.75;24.00;;;;;14.24;44.48;101907.44;5064226;28;45508;-71
2022/05/01 08:58:15;;;;;;;;;26.75;23.50;;;;;14.30;44.02;101909.06;5065101;28;45797;-71
2022/05/01 09:00:41;;;;;;;;;23.50;22.50;;;;;14.34;44.11;101912.53;5067691;28;45454;-71
2022/05/01 09:03:07;;;;;;;;;21.25;20.00;;;;;14.32;43.78;101901.84;5073038;27;45556;-71
2022/05/01 09:05:32;;;;;;;;;24.00;22.50;;;;;14.38;43.77;101901.66;5067920;28;46093;-71
2022/05/01 09:07:58;;;;;;;;;25.25;23.00;;;;;14.43;43.73;101899.72;5060001;28;45704;-71
2022/05/01 09:10:27;;;;;;;;;25.25;24.25;;;;;14.50;44.08;101915.63;5069175;28;45294;-71
2022/05/01 09:12:53;;;;;;;;;17.75;15.75;;;;;14.49;44.22;101898.66;5073309;27;45335;-70
2022/05/01 09:15:43;;;;;;;;;22.25;21.50;;;;;14.57;43.63;101885.84;5064810;28;46404;-70
2022/05/01 09:18:14;;;;;;;;;25.75;23.50;;;;;14.52;43.59;101873.50;5060935;28;45476;-70
2022/05/01 09:21:07;;;;;;;;;23.25;21.75;;;;;14.60;43.45;101890.28;5060454;28;45335;-70
2022/05/01 09:23:44;;;;;;;;;26.00;24.00;;;;;14.62;43.60;101881.25;5077509;28;45567;-70
2022/05/01 09:26:12;;;;;;;;;29.50;28.00;;;;;14.61;43.26;101884.00;5062030;28;46119;-70
2022/05/01 09:28:50;;;;;;;;;30.00;27.75;;;;;14.62;43.71;101881.25;5062579;28;45575;-72
2022/05/01 09:31:17;;;;;;;;;27.00;25.00;;;;;14.56;43.31;101878.72;5074672;28;45376;-72
2022/05/01 09:33:42;;;;;;;;;25.50;25.50;;;;;14.55;43.49;101884.13;5065461;28;45619;-72
2022/05/01 09:36:09;;;;;;;;;26.75;23.75;;;;;14.57;43.23;101887.69;5060875;28;45468;-72
2022/05/01 09:38:35;;;;;;;;;27.75;24.75;;;;;14.57;43.08;101876.94;5066405;28;45748;-72
2022/05/01 09:41:12;;;;;;;;;20.75;20.75;;;;;14.60;43.34;101875.06;5066756;27;45385;-72
2022/05/01 09:43:42;;;;;;;;;27.25;24.75;;;;;14.60;42.56;101874.16;5065583;28;45261;-72
2022/05/01 09:46:19;;;;;;;;;26.25;21.00;;;;;14.63;42.83;101880.34;5059516;28;46359;-73
2022/05/01 09:48:59;;;;;;;;;25.25;22.75;;;;;14.68;42.68;101882.00;5060956;28;45338;-73
2022/05/01 09:51:25;;;;;;;;;22.75;22.25;;;;;14.70;42.35;101877.44;5059957;28;45397;-73
2022/05/01 09:53:50;;;;;;;;;22.75;19.75;;;;;14.73;42.36;101872.84;5078488;28;45460;-73
2022/05/01 09:56:16;;;;;;;;;24.00;24.00;;;;;14.82;42.09;101871.69;5067185;28;46098;-74
2022/05/01 09:58:43;;;;;;;;;25.75;23.75;;;;;14.82;41.91;101867.19;5060759;28;45386;-74
2022/05/01 10:01:09;;;;;;;;;23.75;22.75;;;;;14.84;42.30;101864.44;5066976;28;45183;-74
2022/05/01 10:03:39;;;;;;;;;22.25;22.25;;;;;14.85;42.08;101866.22;5068303;28;45485;-73
2022/05/01 10:06:06;;;;;;;;;21.50;19.25;;;;;14.90;41.54;101866.03;5060415;28;46923;-74
2022/05/01 10:08:32;;;;;;;;;22.00;21.00;;;;;14.93;41.65;101865.94;5059520;28;45578;-73
2022/05/01 10:10:59;;;;;;;;;22.50;22.50;;;;;14.94;41.46;101859.66;5066525;28;45493;-74
2022/05/01 10:13:26;;;;;;;;;23.00;21.50;;;;;14.90;41.53;101847.22;5073083;28;45546;-74
2022/05/01 10:15:53;;;;;;;;;24.50;22.00;;;;;14.98;41.71;101845.16;5059397;28;46468;-74
2022/05/01 10:18:19;;;;;;;;;18.25;18.25;;;;;15.06;41.75;101861.94;5059327;28;45410;-74
2022/05/01 10:20:44;;;;;;;;;17.50;17.50;;;;;15.07;41.70;101846.66;5059586;28;45326;-73
2022/05/01 10:23:12;;;;;;;;;26.50;24.00;;;;;15.21;41.49;101860.53;5064345;28;45611;-73
2022/05/01 10:25:50;;;;;;;;;20.50;18.25;;;;;15.25;41.26;101848.75;5069427;28;46022;-74
2022/05/01 10:28:41;;;;;;;;;16.00;16.00;;;;;15.32;41.19;101844.91;5062064;28;45616;-74
2022/05/01 10:34:31;;;;;;;;;20.50;20.25;;;;;15.39;40.87;101840.19;5062523;28;45496;-73
2022/05/01 10:37:26;;;;;;;;;21.75;20.50;;;;;15.39;41.36;101829.44;5062467;28;46602;-73
2022/05/01 10:39:53;;;;;;;;;23.00;20.50;;;;;15.41;40.90;101813.25;5063941;28;45394;-74
2022/05/01 10:42:46;;;;;;;;;24.00;22.25;;;;;15.51;40.84;101826.31;5070767;28;45318;-74
2022/05/01 10:45:23;;;;;;;;;25.25;23.75;;;;;15.58;40.52;101826.97;5071670;28;45508;-73
2022/05/01 10:47:52;;;;;;;;;22.00;22.00;;;;;15.52;40.47;101822.69;5079388;28;46224;-73
2022/05/01 10:50:22;;;;;;;;;21.00;21.00;;;;;15.55;40.58;101819.00;5062759;28;45576;-74
2022/05/01 10:53:12;;;;;;;;;22.50;21.50;;;;;15.61;40.39;101815.22;5078170;28;45548;-74
2022/05/01 10:55:53;;;;;;;;;18.75;18.50;;;;;15.66;40.03;101813.22;5070085;28;45488;-76
2022/05/01 10:58:23;;;;;;;;;17.75;16.75;;;;;15.70;40.05;101807.69;5061182;28;46048;-76
2022/05/01 11:00:50;;;;;;;;;23.25;20.75;;;;;15.68;39.95;101804.16;5058288;28;45474;-71
2022/05/01 11:03:26;;;;;;;;;19.00;17.50;;;;;15.72;39.82;101802.25;5062610;28;45583;-74
2022/05/01 11:06:08;;;;;;;;;19.00;17.75;;;;;15.72;40.03;101796.88;5058349;28;45551;-75
2022/05/01 11:08:36;;;;;;;;;9.50;8.75;;;;;15.82;39.36;101797.41;5058277;28;47324;-74
2022/05/01 11:11:05;;;;;;;;;19.00;19.00;;;;;15.82;39.42;101803.69;5058844;28;45874;-74
2022/05/01 11:13:39;;;;;;;;;21.50;19.50;;;;;15.83;39.49;101793.78;5065536;28;45862;-74
2022/05/01 11:16:06;;;;;;;;;21.00;19.25;;;;;15.91;39.21;101802.47;5073439;28;45501;-73
2022/05/01 11:18:40;;;;;;;;;17.75;17.75;;;;;15.95;39.11;101784.38;5069977;28;46692;-74
2022/05/01 11:21:23;;;;;;;;;24.75;21.25;;;;;15.99;38.83;101772.53;5061666;28;45774;-73
2022/05/01 11:24:05;;;;;;;;;23.50;22.25;;;;;16.02;38.99;101778.69;5070172;28;45555;-75
2022/05/01 11:26:32;;;;;;;;;18.50;17.25;;;;;16.04;38.83;101771.44;5057438;28;45627;-73
2022/05/01 11:29:13;;;;;;;;;20.50;19.50;;;;;16.07;38.84;101778.50;5070177;28;46444;-70
2022/05/01 11:31:39;;;;;;;;;28.00;25.25;;;;;16.07;38.88;101775.81;5062452;28;45778;-73
2022/05/01 11:34:16;;;;;;;;;22.25;19.75;;;;;16.06;39.06;101764.16;5060399;28;45565;-74
2022/05/01 11:36:53;;;;;;;;;21.75;21.50;;;;;16.08;38.73;101753.34;5062011;28;45777;-73